createdAt,value
2023-04-18T00:13:41.000Z,100
2023-04-18T00:29:02.176Z,100
2023-04-18T00:44:23.144Z,100
2023-04-18T00:59:44.108Z,100
2023-04-18T01:15:05.000Z,100
2023-04-18T01:30:26.046Z,100
2023-04-18T01:45:47.016Z,100
2023-04-18T02:01:07.000Z,100
2023-04-18T02:16:28.045Z,100
2023-04-18T02:31:49.001Z,100
2023-04-18T02:47:09.975Z,100
2023-04-18T03:02:30.000Z,100
2023-04-18T03:17:51.895Z,100
2023-04-18T03:33:12.877Z,100
2023-04-18T03:48:33.000Z,100
2023-04-18T04:03:54.749Z,100
2023-04-18T04:19:15.696Z,100
2023-04-18T04:34:36.618Z,100
2023-04-18T04:49:57.531Z,99.3
2023-04-18T05:05:18.471Z,100
2023-04-18T05:20:38.406Z,99.7
2023-04-18T05:35:59.331Z,98.1
2023-04-18T05:51:20.245Z,97.2
2023-04-18T06:06:41.180Z,98.2
2023-04-18T06:22:02.106Z,96.7
2023-04-18T06:37:23.026Z,92.7
2023-04-18T06:52:43.934Z,95.3
2023-04-18T07:08:04.868Z,94.4
2023-04-18T07:23:25.787Z,92
2023-04-18T07:38:46.715Z,92.2
2023-04-18T07:54:07.645Z,90
2023-04-18T08:09:28.577Z,86.3
2023-04-18T08:24:49.510Z,90.8
2023-04-18T08:40:09.000Z,89.7
2023-04-18T08:55:30.365Z,90.8
2023-04-18T08:56:51.427Z,90.1
2023-04-18T08:58:12.495Z,89.8
2023-04-18T08:59:33.566Z,90.2
2023-04-18T09:00:54.625Z,88.8
2023-04-18T09:02:15.000Z,89.3
2023-04-18T09:03:36.773Z,90.3
2023-04-18T09:04:57.000Z,91
2023-04-18T09:06:18.915Z,90.3
2023-04-18T09:07:39.966Z,88.9
2023-04-18T09:09:01.037Z,87.9
2023-04-18T09:10:22.101Z,88.9
2023-04-18T09:11:42.187Z,88.7
2023-04-18T09:13:03.247Z,89.1
2023-04-18T09:14:24.329Z,88.8
2023-04-18T09:15:45.389Z,88.9
2023-04-18T09:17:06.000Z,89.6
2023-04-18T09:18:27.521Z,89.1
2023-04-18T09:19:48.580Z,88.9
2023-04-18T09:21:09.000Z,88.9
2023-04-18T09:22:30.000Z,88.9
2023-04-18T09:23:51.000Z,89.5
2023-04-18T09:25:12.851Z,90.2
2023-04-18T09:26:33.000Z,89.7
2023-04-18T09:27:54.969Z,90.5
2023-04-18T09:29:15.050Z,90
2023-04-18T09:30:36.130Z,89
2023-04-18T09:31:57.000Z,89
2023-04-18T09:33:18.266Z,88.7
2023-04-18T09:34:39.319Z,88.3
2023-04-18T09:36:00.402Z,87.2
2023-04-18T09:37:21.454Z,87
2023-04-18T09:38:42.527Z,87.3
2023-04-18T09:40:03.000Z,87.2
2023-04-18T09:41:24.663Z,87
2023-04-18T09:42:45.000Z,87.8
2023-04-18T09:44:06.798Z,88.5
2023-04-18T09:45:27.000Z,88.2
2023-04-18T09:46:47.944Z,88.9
2023-04-18T09:48:09.025Z,86.3
2023-04-18T09:49:30.081Z,87.2
2023-04-18T09:50:51.000Z,87.2
2023-04-18T09:52:12.223Z,87.6
2023-04-18T09:53:33.000Z,88.1
2023-04-18T09:54:54.338Z,87.6
2023-04-18T09:56:15.419Z,88.4
2023-04-18T09:57:36.490Z,87.7
2023-04-18T09:58:57.000Z,88.1
2023-04-18T10:00:18.610Z,88.6
2023-04-18T10:01:39.681Z,87.7
2023-04-18T10:03:00.759Z,88.8
2023-04-18T10:04:20.837Z,89.5
2023-04-18T10:05:41.907Z,88
2023-04-18T10:07:03.000Z,88.6
2023-04-18T10:08:24.038Z,87.3
2023-04-18T10:09:45.000Z,86.9
2023-04-18T10:11:06.180Z,87.5
2023-04-18T10:12:27.000Z,87.8
2023-04-18T10:13:48.303Z,88.2
2023-04-18T10:15:09.000Z,88.1
2023-04-18T10:16:30.439Z,88
2023-04-18T10:17:51.000Z,88.2
2023-04-18T10:19:12.582Z,87.8
2023-04-18T10:20:33.000Z,88.4
2023-04-18T10:21:53.732Z,87.1
2023-04-18T10:23:14.000Z,85.9
2023-04-18T10:25:56.918Z,87.5
2023-04-18T10:27:17.988Z,86.8
2023-04-18T10:28:39.061Z,87.6
2023-04-18T10:30:00.132Z,86.3
2023-04-18T10:31:21.180Z,86.7
2023-04-18T10:32:42.259Z,86.1
2023-04-18T10:34:03.318Z,88.5
2023-04-18T10:35:24.381Z,87.4
2023-04-18T10:36:45.452Z,87.8
2023-04-18T10:38:06.530Z,85.2
2023-04-18T10:39:26.597Z,85.6
2023-04-18T10:40:47.672Z,85.9
2023-04-18T10:42:08.743Z,84
2023-04-18T10:43:29.811Z,85.6
2023-04-18T10:44:50.000Z,84.8
2023-04-18T10:46:11.930Z,84.3
2023-04-18T10:47:33.000Z,85.9
2023-04-18T10:48:54.077Z,85.4
2023-04-18T10:50:15.139Z,85.5
2023-04-18T10:51:36.206Z,83.2
2023-04-18T10:52:57.000Z,83.3
2023-04-18T10:54:18.338Z,84.9
2023-04-18T10:55:39.419Z,84.4
2023-04-18T10:56:59.480Z,83.2
2023-04-18T10:58:20.546Z,83.3
2023-04-18T10:59:41.000Z,84.6
2023-04-18T11:01:02.687Z,83.8
2023-04-18T11:02:23.749Z,83.8
2023-04-18T11:03:44.822Z,83.5
2023-04-18T11:05:05.885Z,83.5
2023-04-18T11:06:26.946Z,83.2
2023-04-18T11:07:48.000Z,83.2
2023-04-18T11:09:09.000Z,85.7
2023-04-18T11:10:30.151Z,83.1
2023-04-18T11:11:51.227Z,82.3
2023-04-18T11:13:12.306Z,82.1
2023-04-18T11:14:32.392Z,81.9
2023-04-18T11:15:53.450Z,81.7
2023-04-18T11:17:14.000Z,81.8
2023-04-18T11:18:35.588Z,80.8
2023-04-18T11:19:56.660Z,80.2
2023-04-18T11:21:17.730Z,81.8
2023-04-18T11:22:38.785Z,82.4
2023-04-18T11:23:59.000Z,83.5
2023-04-18T11:25:20.000Z,83
2023-04-18T11:26:41.998Z,84.1
2023-04-18T11:28:03.045Z,80.8
2023-04-18T11:29:24.128Z,81.8
2023-04-18T11:30:45.183Z,84.3
2023-04-18T11:32:05.268Z,84
2023-04-18T11:33:26.000Z,84.3
2023-04-18T11:34:47.396Z,85
2023-04-18T11:36:08.000Z,85
2023-04-18T11:37:29.532Z,85.1
2023-04-18T11:38:50.603Z,84.7
2023-04-18T11:40:11.671Z,85.2
2023-04-18T11:41:32.736Z,86.2
2023-04-18T11:42:53.808Z,86.5
2023-04-18T11:44:14.877Z,85.6
2023-04-18T11:45:35.939Z,84.9
2023-04-18T11:46:57.018Z,84
2023-04-18T11:48:18.082Z,85.4
2023-04-18T11:49:38.149Z,85.2
2023-04-18T11:50:59.235Z,85.5
2023-04-18T11:52:20.288Z,86.8
2023-04-18T11:53:41.357Z,87.6
2023-04-18T11:55:02.000Z,87.4
2023-04-18T11:56:23.000Z,86.1
2023-04-18T11:57:44.549Z,85.7
2023-04-18T11:59:05.627Z,86
2023-04-18T12:00:26.693Z,84.5
2023-04-18T12:01:47.763Z,85.7
2023-04-18T12:03:08.823Z,86.2
2023-04-18T12:04:29.889Z,86
2023-04-18T12:05:50.943Z,84.8
2023-04-18T12:07:11.039Z,85
2023-04-18T12:08:32.103Z,85.5
2023-04-18T12:09:53.178Z,85.9
2023-04-18T12:11:14.239Z,85
2023-04-18T12:12:35.297Z,87.1
2023-04-18T12:13:56.000Z,85.5
2023-04-18T12:15:17.440Z,85.4
2023-04-18T12:16:38.502Z,87.1
2023-04-18T12:17:59.571Z,87
2023-04-18T12:19:20.637Z,87.7
2023-04-18T12:20:41.000Z,86.4
2023-04-18T12:22:02.766Z,85.8
2023-04-18T12:23:23.000Z,86.8
2023-04-18T12:24:43.934Z,86.3
2023-04-18T12:26:04.996Z,85
2023-04-18T12:27:26.061Z,86
2023-04-18T12:28:47.131Z,86.7
2023-04-18T12:30:08.187Z,86.6
2023-04-18T12:31:29.247Z,86.6
2023-04-18T12:32:50.320Z,87
2023-04-18T12:34:11.379Z,86.3
2023-04-18T12:35:32.458Z,86.9
2023-04-18T12:36:53.000Z,87.3
2023-04-18T12:38:14.588Z,86.8
2023-04-18T12:39:35.649Z,87.6
2023-04-18T12:40:56.000Z,86.9
2023-04-18T12:42:17.908Z,86.6
2023-04-18T12:43:38.971Z,87.6
2023-04-18T12:45:00.041Z,86.8
2023-04-18T12:46:21.124Z,86.9
2023-04-18T12:47:42.179Z,87.1
2023-04-18T12:49:03.000Z,88
2023-04-18T12:50:23.332Z,87.7
2023-04-18T12:51:44.401Z,87.6
2023-04-18T12:53:05.000Z,87.7
2023-04-18T12:54:26.538Z,88.7
2023-04-18T12:55:47.600Z,88.1
2023-04-18T12:57:08.666Z,87.7
2023-04-18T12:58:29.738Z,88.3
2023-04-18T12:59:50.811Z,88.4
2023-04-18T13:01:11.866Z,89
2023-04-18T13:02:32.931Z,87.8
2023-04-18T13:03:54.009Z,89.2
2023-04-18T13:05:15.082Z,88.2
2023-04-18T13:06:36.140Z,88.7
2023-04-18T13:07:56.232Z,88
2023-04-18T13:09:17.296Z,87.9
2023-04-18T13:10:38.368Z,86.9
2023-04-18T13:11:59.000Z,88.3
2023-04-18T13:13:20.000Z,88.7
2023-04-18T13:14:41.553Z,88.8
2023-04-18T13:16:02.000Z,88.3
2023-04-18T13:17:23.000Z,89.2
2023-04-18T13:18:44.763Z,88.7
2023-04-18T13:20:05.830Z,88.9
2023-04-18T13:21:26.889Z,88.5
2023-04-18T13:22:47.969Z,88.7
2023-04-18T13:24:09.037Z,88.7
2023-04-18T13:25:29.100Z,88.9
2023-04-18T13:26:50.187Z,89.1
2023-04-18T13:28:11.234Z,88
2023-04-18T13:29:32.305Z,88
2023-04-18T13:30:53.366Z,88
2023-04-18T13:32:14.000Z,87.6
2023-04-18T13:33:35.499Z,87.4
2023-04-18T13:34:56.000Z,87.6
2023-04-18T13:36:17.647Z,87.4
2023-04-18T13:37:38.711Z,87.7
2023-04-18T13:38:59.767Z,87.7
2023-04-18T13:40:20.833Z,88
2023-04-18T13:41:41.900Z,87.1
2023-04-18T13:43:01.984Z,88.5
2023-04-18T13:44:23.062Z,88.8
2023-04-18T13:45:44.121Z,89.1
2023-04-18T13:47:05.188Z,89.3
2023-04-18T13:48:26.248Z,89.6
2023-04-18T13:49:47.319Z,89.3
2023-04-18T13:51:08.000Z,90.2
2023-04-18T13:52:29.463Z,90.2
2023-04-18T13:53:50.000Z,89.9
2023-04-18T13:55:11.584Z,89.2
2023-04-18T13:56:32.000Z,89.2
2023-04-18T13:57:53.729Z,89.9
2023-04-18T13:59:14.779Z,90.9
2023-04-18T14:00:34.884Z,90.8
2023-04-18T14:01:55.948Z,91.3
2023-04-18T14:03:17.008Z,91.3
2023-04-18T14:04:38.000Z,91.3
2023-04-18T14:05:59.146Z,90.9
2023-04-18T14:07:20.222Z,90.8
2023-04-18T14:08:41.279Z,91.5
2023-04-18T14:10:02.341Z,91.3
2023-04-18T14:11:23.420Z,91.2
2023-04-18T14:12:44.000Z,91.7
2023-04-18T14:14:05.552Z,92.3
2023-04-18T14:15:26.613Z,91.9
2023-04-18T14:16:47.685Z,93.3
2023-04-18T14:18:07.000Z,92.9
2023-04-18T14:19:28.849Z,93.2
2023-04-18T14:20:49.000Z,93.6
2023-04-18T14:22:10.973Z,93.5
2023-04-18T14:23:32.000Z,93
2023-04-18T14:24:53.106Z,93.1
2023-04-18T14:26:14.000Z,92.8
2023-04-18T14:27:35.237Z,93.8
2023-04-18T14:28:56.000Z,94
2023-04-18T14:30:17.371Z,94.1
2023-04-18T14:31:38.000Z,93.6
2023-04-18T14:32:59.502Z,94.2
2023-04-18T14:34:20.000Z,94.7
2023-04-18T14:35:40.654Z,94.7
2023-04-18T14:37:01.000Z,95.3
2023-04-18T14:38:22.795Z,94
2023-04-18T14:39:43.850Z,93.8
2023-04-18T14:41:04.917Z,94.2
2023-04-18T14:42:26.000Z,93.8
2023-04-18T14:43:47.055Z,94.4
2023-04-18T14:45:08.123Z,94.9
2023-04-18T14:46:29.194Z,95.1
2023-04-18T14:47:50.000Z,94.8
2023-04-18T14:49:11.323Z,95.1
2023-04-18T14:50:32.375Z,95
2023-04-18T14:51:53.448Z,94.4
2023-04-18T14:53:13.000Z,94.5
2023-04-18T14:54:34.595Z,94.3
2023-04-18T14:55:55.000Z,94.9
2023-04-18T14:57:16.737Z,94.4
2023-04-18T14:58:37.803Z,94
2023-04-18T14:59:58.854Z,93.9
2023-04-18T15:01:19.941Z,93.3
2023-04-18T15:02:41.005Z,94.3
2023-04-18T15:04:02.000Z,94.7
2023-04-18T15:05:23.000Z,94.3
2023-04-18T15:06:44.215Z,94.2
2023-04-18T15:08:05.000Z,93.8
2023-04-18T15:09:26.000Z,94.1
2023-04-18T15:10:46.435Z,94
2023-04-18T15:12:07.489Z,94.4
2023-04-18T15:13:28.576Z,94.5
2023-04-18T15:14:49.000Z,95.3
2023-04-18T15:16:10.701Z,95.9
2023-04-18T15:17:31.763Z,95.6
2023-04-18T15:18:52.826Z,95.9
2023-04-18T15:20:13.899Z,95.8
2023-04-18T15:21:34.972Z,95.8
2023-04-18T15:22:56.036Z,96
2023-04-18T15:24:17.088Z,96.7
2023-04-18T15:25:38.162Z,97
2023-04-18T15:26:59.243Z,97.3
2023-04-18T15:28:19.000Z,97.2
2023-04-18T15:29:40.378Z,97.9
2023-04-18T15:31:01.462Z,97.9
2023-04-18T15:32:22.514Z,97.6
2023-04-18T15:33:43.000Z,97.4
2023-04-18T15:35:04.641Z,97.8
2023-04-18T15:36:25.714Z,97.5
2023-04-18T15:37:46.797Z,97.4
2023-04-18T15:39:07.850Z,97.4
2023-04-18T15:41:49.987Z,97.8
2023-04-18T15:43:11.000Z,98.1
2023-04-18T15:44:32.109Z,97.4
2023-04-18T15:45:52.196Z,97.9
2023-04-18T15:47:13.270Z,97.6
2023-04-18T15:48:34.341Z,98.1
2023-04-18T15:49:55.000Z,98.2
2023-04-18T15:51:16.462Z,98.6
2023-04-18T15:52:37.536Z,98
2023-04-18T15:53:58.592Z,98.2
2023-04-18T15:55:19.000Z,98.3
2023-04-18T15:56:40.733Z,98.3
2023-04-18T15:58:01.789Z,98.7
2023-04-18T15:59:22.868Z,97.9
2023-04-18T16:00:43.000Z,98.3
2023-04-18T16:02:04.996Z,98.3
2023-04-18T16:03:25.000Z,98
2023-04-18T16:04:46.154Z,98.2
2023-04-18T16:06:07.000Z,98.6
2023-04-18T16:07:28.284Z,98.5
2023-04-18T16:08:49.000Z,98.5
2023-04-18T16:10:10.432Z,98.3
2023-04-18T16:11:31.486Z,98
2023-04-18T16:12:52.557Z,97.7
2023-04-18T16:14:13.615Z,97.9
2023-04-18T16:15:34.698Z,97.9
2023-04-18T16:16:55.000Z,97.8
2023-04-18T16:18:16.818Z,97.8
2023-04-18T16:19:37.000Z,97.7
2023-04-18T16:20:57.967Z,98.1
2023-04-18T16:22:19.031Z,97.9
2023-04-18T16:23:40.105Z,97.8
2023-04-18T16:25:01.177Z,98.1
2023-04-18T16:26:22.235Z,98.2
2023-04-18T16:27:43.000Z,98.3
2023-04-18T16:29:04.388Z,98.3
2023-04-18T16:30:25.462Z,98.2
2023-04-18T16:31:46.515Z,98.5
2023-04-18T16:33:07.582Z,98.8
2023-04-18T16:34:28.642Z,98.9
2023-04-18T16:35:49.000Z,98.4
2023-04-18T16:37:10.782Z,98.6
2023-04-18T16:38:30.000Z,98.9
2023-04-18T16:39:51.941Z,98.6
2023-04-18T16:41:13.000Z,98.8
2023-04-18T16:42:34.062Z,98.6
2023-04-18T16:43:55.000Z,98.5
2023-04-18T16:45:16.194Z,98.5
2023-04-18T16:46:37.277Z,98.4
2023-04-18T16:47:58.332Z,98.3
2023-04-18T16:49:19.400Z,98.5
2023-04-18T16:50:40.468Z,98.4
2023-04-18T16:52:01.000Z,98.5
2023-04-18T16:53:22.593Z,98.5
2023-04-18T16:54:43.668Z,98.6
2023-04-18T16:56:03.749Z,98.6
2023-04-18T16:57:24.826Z,98.7
2023-04-18T16:58:45.889Z,98.6
2023-04-18T17:00:06.940Z,98.2
2023-04-18T17:01:28.017Z,98.5
2023-04-18T17:02:49.084Z,98.6
2023-04-18T17:04:10.158Z,98.7
2023-04-18T17:05:31.000Z,98.5
2023-04-18T17:06:52.276Z,98.3
2023-04-18T17:08:13.363Z,98.3
2023-04-18T17:09:34.410Z,98.3
2023-04-18T17:10:55.000Z,98.5
2023-04-18T17:12:16.562Z,98.1
2023-04-18T17:13:36.000Z,98.4
2023-04-18T17:14:57.700Z,97.8
2023-04-18T17:16:18.000Z,97.9
2023-04-18T17:17:39.838Z,98.2
2023-04-18T17:19:00.000Z,98.3
2023-04-18T17:20:21.961Z,98.6
2023-04-18T17:21:42.058Z,98.4
2023-04-18T17:23:03.133Z,98.8
2023-04-18T17:24:24.197Z,99
2023-04-18T17:25:45.248Z,99.1
2023-04-18T17:27:06.332Z,99.1
2023-04-18T17:28:27.000Z,99.3
2023-04-18T17:29:48.449Z,99.2
2023-04-18T17:31:09.522Z,99.3
2023-04-18T17:32:30.586Z,99.4
2023-04-18T17:33:51.656Z,99.4
2023-04-18T17:35:12.724Z,99.2
2023-04-18T17:36:33.795Z,99.2
2023-04-18T17:37:54.875Z,99.4
2023-04-18T17:40:36.013Z,99.3
2023-04-18T17:41:57.085Z,99.3
2023-04-18T17:43:18.137Z,99.2
2023-04-18T17:44:39.207Z,99.2
2023-04-18T17:46:00.000Z,99.4
2023-04-18T17:47:21.346Z,99.3
2023-04-18T17:48:42.411Z,99.2
2023-04-18T17:50:03.473Z,99.4
2023-04-18T17:51:24.541Z,99.5
2023-04-18T17:52:45.612Z,99.5
2023-04-18T17:54:06.687Z,99.5
2023-04-18T17:55:27.743Z,99.6
2023-04-18T17:56:47.821Z,99.6
2023-04-18T17:58:08.895Z,99.8
2023-04-18T17:59:29.961Z,99.6
2023-04-18T18:00:51.042Z,99.7
2023-04-18T18:02:12.000Z,99.7
2023-04-18T18:03:33.175Z,99.9
2023-04-18T18:04:54.000Z,99.8
2023-04-18T18:06:15.289Z,99.9
2023-04-18T18:07:36.343Z,100
2023-04-18T18:08:57.427Z,100
2023-04-18T18:10:18.490Z,100
2023-04-18T18:13:00.000Z,100
2023-04-18T18:14:20.700Z,100
2023-04-18T18:15:41.775Z,100
2023-04-18T18:17:02.000Z,100
2023-04-18T18:18:23.000Z,100
2023-04-18T18:19:44.969Z,100
2023-04-18T18:21:06.000Z,100
2023-04-18T18:22:27.150Z,100
2023-04-18T18:23:48.000Z,99.8
2023-04-18T18:25:09.000Z,99.8
2023-04-18T18:26:30.000Z,99.8
2023-04-18T18:27:51.545Z,99.8
2023-04-18T18:29:12.000Z,99.8
2023-04-18T18:30:33.762Z,99.7
2023-04-18T18:31:53.000Z,99.8
2023-04-18T18:33:14.000Z,100
2023-04-18T18:34:36.000Z,99.9
2023-04-18T18:35:57.136Z,100
2023-04-18T18:37:18.000Z,100
2023-04-18T18:38:39.346Z,100
2023-04-18T18:40:00.000Z,99.8
2023-04-18T18:41:21.000Z,99.7
2023-04-18T18:42:42.000Z,99.5
2023-04-18T18:44:03.810Z,99.4
2023-04-18T18:45:24.000Z,99.5
2023-04-18T18:46:46.013Z,99.6
2023-04-18T18:48:07.000Z,99.7
2023-04-18T18:49:27.000Z,99.7
2023-04-18T18:50:48.000Z,99.9
2023-04-18T18:52:09.465Z,99.6
2023-04-18T18:53:30.000Z,99.8
2023-04-18T18:54:51.685Z,99.7
2023-04-18T18:56:12.000Z,99.9
2023-04-18T18:57:33.901Z,100
2023-04-18T18:58:55.000Z,100
2023-04-18T19:00:16.137Z,100
2023-04-18T19:01:37.230Z,100
2023-04-18T19:02:58.355Z,100
2023-04-18T19:04:19.000Z,100
2023-04-18T19:05:40.566Z,100
2023-04-18T19:07:00.000Z,100
2023-04-18T19:08:21.810Z,100
2023-04-18T19:09:42.000Z,100
2023-04-18T19:11:04.027Z,100
2023-04-18T19:12:25.000Z,100
2023-04-18T19:13:46.000Z,100
2023-04-18T19:15:07.339Z,100
2023-04-18T19:16:28.458Z,100
2023-04-18T19:17:49.000Z,100
2023-04-18T19:19:10.672Z,100
2023-04-18T19:20:31.000Z,100
2023-04-18T19:21:52.000Z,100
2023-04-18T19:23:14.000Z,100
2023-04-18T19:24:34.109Z,100
2023-04-18T19:25:55.000Z,100
2023-04-18T19:27:16.336Z,100
2023-04-18T19:28:37.423Z,100
2023-04-18T19:29:58.000Z,100
2023-04-18T19:31:19.643Z,100
2023-04-18T19:32:40.770Z,100
2023-04-18T19:34:01.000Z,100
2023-04-18T19:35:22.976Z,100
2023-04-18T19:36:44.000Z,100
2023-04-18T19:38:05.000Z,100
2023-04-18T19:39:26.000Z,100
2023-04-18T19:40:47.405Z,100
2023-04-18T19:42:07.532Z,100
2023-04-18T19:43:28.635Z,100
2023-04-18T19:44:49.000Z,100
2023-04-18T19:46:10.858Z,100
2023-04-18T19:47:31.000Z,100
2023-04-18T19:48:53.086Z,100
2023-04-18T19:50:14.181Z,100
2023-04-18T19:51:35.296Z,100
2023-04-18T19:52:56.404Z,100
2023-04-18T19:54:17.000Z,100
2023-04-18T19:55:38.613Z,100
2023-04-18T19:56:59.000Z,100
2023-04-18T19:58:20.833Z,100
2023-04-18T19:59:40.954Z,100
2023-04-18T20:01:02.067Z,100
2023-04-18T20:02:23.000Z,100
2023-04-18T20:03:44.293Z,100
2023-04-18T20:05:05.398Z,100
2023-04-18T20:06:26.514Z,100
2023-04-18T20:07:47.606Z,100
2023-04-18T20:09:08.722Z,100
2023-04-18T20:10:29.000Z,100
2023-04-18T20:11:50.933Z,100
2023-04-18T20:13:12.056Z,100
2023-04-18T20:14:33.000Z,100
2023-04-18T20:15:54.265Z,100
2023-04-18T20:17:14.398Z,100
2023-04-18T20:18:35.000Z,100
2023-04-18T20:19:56.613Z,100
2023-04-18T20:21:17.719Z,100
2023-04-18T20:22:38.804Z,100
2023-04-18T20:23:59.933Z,100
2023-04-18T20:25:21.024Z,100
2023-04-18T20:26:42.000Z,100
2023-04-18T20:28:03.249Z,100
2023-04-18T20:29:24.371Z,100
2023-04-18T20:30:45.477Z,100
2023-04-18T20:32:06.573Z,100
2023-04-18T20:33:27.700Z,100
2023-04-18T20:36:08.913Z,99.8
2023-04-18T20:37:30.030Z,99.6
2023-04-18T20:38:51.136Z,99.3
2023-04-18T20:40:12.256Z,99.2
2023-04-18T20:41:33.354Z,98.7
2023-04-18T20:42:54.000Z,98.5
2023-04-18T20:44:15.567Z,98.2
2023-04-18T20:45:36.679Z,98.2
2023-04-18T20:46:57.781Z,98
2023-04-18T20:48:18.886Z,97.8
2023-04-18T20:49:40.018Z,97.7
2023-04-18T20:51:01.000Z,97.3
2023-04-18T20:52:21.224Z,97.2
2023-04-18T20:53:42.351Z,97.5
2023-04-18T20:55:03.000Z,97.6
2023-04-18T20:56:24.566Z,97.5
2023-04-18T20:57:45.000Z,97.3
2023-04-18T20:59:06.792Z,97.2
2023-04-18T21:00:27.000Z,97.1
2023-04-18T21:01:49.000Z,96.7
2023-04-18T21:03:10.120Z,96.7
2023-04-18T21:04:31.216Z,95.5
2023-04-18T21:05:52.000Z,94.9
2023-04-18T21:07:13.434Z,94.3
2023-04-18T21:08:34.000Z,94
2023-04-18T21:09:54.675Z,92.8
2023-04-18T21:12:36.881Z,92.2
2023-04-18T21:13:58.000Z,92.3
2023-04-18T21:15:19.000Z,91.8
2023-04-18T21:16:40.206Z,92
2023-04-18T21:18:01.328Z,92
2023-04-18T21:19:22.409Z,92
2023-04-18T21:20:43.543Z,92.1
2023-04-18T21:22:04.000Z,92.2
2023-04-18T21:23:25.745Z,92.4
2023-04-18T21:24:46.000Z,92.7
2023-04-18T21:26:07.966Z,92.8
2023-04-18T21:27:28.000Z,93
2023-04-18T21:28:49.205Z,93.3
2023-04-18T21:30:10.000Z,93.6
2023-04-18T21:31:31.416Z,93.5
2023-04-18T21:32:52.000Z,93.1
2023-04-18T21:34:13.633Z,93.6
2023-04-18T21:35:34.000Z,93
2023-04-18T21:36:55.856Z,93.3
2023-04-18T21:38:16.955Z,93.5
2023-04-18T21:39:38.078Z,93
2023-04-18T21:40:59.000Z,92
2023-04-18T21:42:20.290Z,91.3
2023-04-18T21:43:41.000Z,91.1
2023-04-18T21:45:01.518Z,90.3
2023-04-18T21:46:22.624Z,90
2023-04-18T21:47:43.729Z,88.8
2023-04-18T21:49:04.000Z,88.9
2023-04-18T21:50:25.958Z,88.7
2023-04-18T21:51:47.000Z,88.7
2023-04-18T21:53:07.197Z,88.4
2023-04-18T21:54:28.293Z,88.5
2023-04-18T21:55:49.420Z,88
2023-04-18T21:57:10.509Z,87.5
2023-04-18T22:12:31.475Z,88.8
2023-04-18T22:27:52.438Z,90.6
2023-04-18T22:43:13.411Z,88.2
2023-04-18T22:58:34.000Z,88.2
2023-04-18T23:13:55.000Z,88.5
2023-04-18T23:29:16.000Z,87.7
2023-04-18T23:44:37.276Z,87.5
2023-04-18T23:59:58.249Z,87.2
